Wet Dream — MHCN9 — position and weather

sailwx.info

Track history (hours):
 
Tides and Currents Weather Stations Pressure Air Temp Water Temp Dewpoint Dewpoint Depression Visibility Wind Speed Wind Dir Waves Ship Positions

Wet Dream

Last reported at 2018-Jan-10 13:38 UTC. Time now 2018-Jan-20 19:11 UTC.
Position N 17°01' W 061°46'.
Warning: this ship's position is 10 days out of date.

Length 12 m.

Type: Sailing vessel. MMSI: 235024071.

Date/timePositionNaut miles runAvg speedWind from/ knotsBaromVisibWave heightAir tempDewpointWater temp
2018-Jan-10 13:38N 17°01' W 061°46'0 0.0
2018-Jan-10 13:31N 17°01' W 061°46'1 1.1
2018-Jan-10 13:00N 17°00' W 061°46'0 0.0
2018-Jan-10 08:50N 17°00' W 061°46'0 0.0
2018-Jan-09 18:30N 17°00' W 061°46'0 0.0
2018-Jan-09 17:32N 17°00' W 061°46'0 0.0
2018-Jan-09 17:30N 17°00' W 061°46'0 0.3
2018-Jan-09 16:31N 17°00' W 061°46'0 0.0
2018-Jan-09 16:28N 17°00' W 061°46'  
2018-Jan-06 16:34N 17°01' W 061°46'0 0.1
2018-Jan-06 16:28N 17°01' W 061°46'1 1.1
2018-Jan-06 16:00N 17°00' W 061°46'2 3.6
2018-Jan-06 15:30N 17°00' W 061°48'2 3.7
2018-Jan-06 15:00N 17°00' W 061°50'2 3.4
2018-Jan-06 14:30N 17°01' W 061°51'2 3.5
2018-Jan-06 14:00N 17°01' W 061°53'2 4.7
2018-Jan-06 13:29N 17°04' W 061°54'1 0.8
2018-Jan-06 12:05N 17°04' W 061°53'0 3.3
2018-Jan-06 12:00N 17°04' W 061°54'3 5.0
2018-Jan-06 11:30N 17°05' W 061°56'3 5.3
2018-Jan-06 11:00N 17°07' W 061°58'3 5.1
2018-Jan-06 10:30N 17°09' W 061°60'2 4.9
2018-Jan-06 10:00N 17°10' W 062°02'2 4.7
2018-Jan-06 09:30N 17°12' W 062°04'2 4.6
2018-Jan-06 09:00N 17°14' W 062°05'2 4.7
2018-Jan-06 08:30N 17°15' W 062°07'2 4.6
2018-Jan-06 08:00N 17°17' W 062°09'2 4.2
2018-Jan-06 07:30N 17°18' W 062°11'2 4.4
2018-Jan-06 07:00N 17°20' W 062°12'2 4.5
2018-Jan-06 06:30N 17°21' W 062°14'2 4.4
2018-Jan-06 06:00N 17°23' W 062°16'2 4.5
2018-Jan-06 05:30N 17°24' W 062°18'2 4.4
2018-Jan-06 05:00N 17°25' W 062°19'2 4.4
2018-Jan-06 04:30N 17°27' W 062°21'2 4.3
2018-Jan-06 04:00N 17°28' W 062°23'2 4.3
2018-Jan-06 03:30N 17°30' W 062°24'59 1.8
2018-Jan-04 17:50N 18°12' W 063°08'2 4.8
2018-Jan-04 17:29N 18°11' W 063°10'2 5.0
2018-Jan-04 16:59N 18°08' W 063°11'3 5.4
2018-Jan-04 16:29N 18°06' W 063°10'3 5.2
2018-Jan-04 15:59N 18°03' W 063°09'1 1.2
2018-Jan-04 15:30N 18°03' W 063°09'2 4.9
2018-Jan-04 15:01N 18°05' W 063°08'2 3.0
2018-Jan-04 14:17N 18°04' W 063°06'0 0.3
2018-Jan-04 13:53N 18°04' W 063°06'2 4.6
2018-Jan-04 13:24N 18°05' W 063°08'2 4.5
2018-Jan-04 13:00N 18°06' W 063°10'2 4.4
2018-Jan-04 12:30N 18°06' W 063°12'2 4.4
2018-Jan-04 12:00N 18°07' W 063°14'2 4.3
2018-Jan-04 11:30N 18°07' W 063°16'2 4.1
2018-Jan-04 11:00N 18°08' W 063°18'2 4.1
2018-Jan-04 10:29N 18°08' W 063°21'2 4.2
2018-Jan-04 10:00N 18°09' W 063°23'2 4.1
2018-Jan-04 09:29N 18°09' W 063°25'2 4.1
2018-Jan-04 08:59N 18°10' W 063°27'  
Track history (hours):
 
Tides and Currents Weather Stations Pressure Air Temp Water Temp Dewpoint Dewpoint Depression Visibility Wind Speed Wind Dir Waves Ship Positions

Wet Dream

Last reported at 2018-Jan-10 13:38 UTC. Time now 2018-Jan-20 19:11 UTC.
Position N 17°01' W 061°46'.
Warning: this ship's position is 10 days out of date.

Length 12 m.

Type: Sailing vessel. MMSI: 235024071.

Date/timePositionNaut miles runAvg speedWind from/ knotsBaromVisibWave heightAir tempDewpointWater temp
2018-Jan-10 13:38N 17°01' W 061°46'0 0.0
2018-Jan-10 13:31N 17°01' W 061°46'1 1.1
2018-Jan-10 13:00N 17°00' W 061°46'0 0.0
2018-Jan-10 08:50N 17°00' W 061°46'0 0.0
2018-Jan-09 18:30N 17°00' W 061°46'0 0.0
2018-Jan-09 17:32N 17°00' W 061°46'0 0.0
2018-Jan-09 17:30N 17°00' W 061°46'0 0.3
2018-Jan-09 16:31N 17°00' W 061°46'0 0.0
2018-Jan-09 16:28N 17°00' W 061°46'  
2018-Jan-06 16:34N 17°01' W 061°46'0 0.1
2018-Jan-06 16:28N 17°01' W 061°46'1 1.1
2018-Jan-06 16:00N 17°00' W 061°46'2 3.6
2018-Jan-06 15:30N 17°00' W 061°48'2 3.7
2018-Jan-06 15:00N 17°00' W 061°50'2 3.4
2018-Jan-06 14:30N 17°01' W 061°51'2 3.5
2018-Jan-06 14:00N 17°01' W 061°53'2 4.7
2018-Jan-06 13:29N 17°04' W 061°54'1 0.8
2018-Jan-06 12:05N 17°04' W 061°53'0 3.3
2018-Jan-06 12:00N 17°04' W 061°54'3 5.0
2018-Jan-06 11:30N 17°05' W 061°56'3 5.3
2018-Jan-06 11:00N 17°07' W 061°58'3 5.1
2018-Jan-06 10:30N 17°09' W 061°60'2 4.9
2018-Jan-06 10:00N 17°10' W 062°02'2 4.7
2018-Jan-06 09:30N 17°12' W 062°04'2 4.6
2018-Jan-06 09:00N 17°14' W 062°05'2 4.7
2018-Jan-06 08:30N 17°15' W 062°07'2 4.6
2018-Jan-06 08:00N 17°17' W 062°09'2 4.2
2018-Jan-06 07:30N 17°18' W 062°11'2 4.4
2018-Jan-06 07:00N 17°20' W 062°12'2 4.5
2018-Jan-06 06:30N 17°21' W 062°14'2 4.4
2018-Jan-06 06:00N 17°23' W 062°16'2 4.5
2018-Jan-06 05:30N 17°24' W 062°18'2 4.4
2018-Jan-06 05:00N 17°25' W 062°19'2 4.4
2018-Jan-06 04:30N 17°27' W 062°21'2 4.3
2018-Jan-06 04:00N 17°28' W 062°23'2 4.3
2018-Jan-06 03:30N 17°30' W 062°24'59 1.8
2018-Jan-04 17:50N 18°12' W 063°08'2 4.8
2018-Jan-04 17:29N 18°11' W 063°10'2 5.0
2018-Jan-04 16:59N 18°08' W 063°11'3 5.4
2018-Jan-04 16:29N 18°06' W 063°10'3 5.2
2018-Jan-04 15:59N 18°03' W 063°09'1 1.2
2018-Jan-04 15:30N 18°03' W 063°09'2 4.9
2018-Jan-04 15:01N 18°05' W 063°08'2 3.0
2018-Jan-04 14:17N 18°04' W 063°06'0 0.3
2018-Jan-04 13:53N 18°04' W 063°06'2 4.6
2018-Jan-04 13:24N 18°05' W 063°08'2 4.5
2018-Jan-04 13:00N 18°06' W 063°10'2 4.4
2018-Jan-04 12:30N 18°06' W 063°12'2 4.4
2018-Jan-04 12:00N 18°07' W 063°14'2 4.3
2018-Jan-04 11:30N 18°07' W 063°16'2 4.1
2018-Jan-04 11:00N 18°08' W 063°18'2 4.1
2018-Jan-04 10:29N 18°08' W 063°21'2 4.2
2018-Jan-04 10:00N 18°09' W 063°23'2 4.1
2018-Jan-04 09:29N 18°09' W 063°25'2 4.1
2018-Jan-04 08:59N 18°10' W 063°27'  

Dump ship's entire track history